createdAt,value
2018-11-06T00:01:13.475Z,61.48
2018-11-06T00:03:47.081Z,54.48
2018-11-06T00:06:15.819Z,58.42
2018-11-06T00:08:44.554Z,55.03
2018-11-06T00:11:13.273Z,49.70
2018-11-06T00:13:42.089Z,49.25
2018-11-06T00:16:10.864Z,53.85
2018-11-06T00:18:39.595Z,56.83
2018-11-06T00:21:08.276Z,47.35
2018-11-06T00:23:37.064Z,49.70
2018-11-06T00:26:05.876Z,61.28
2018-11-06T00:28:34.662Z,46.48
2018-11-06T00:31:03.525Z,53.33
2018-11-06T00:33:32.247Z,55.05
2018-11-06T00:36:01.050Z,63.85
2018-11-06T00:38:29.743Z,54.73
2018-11-06T00:40:58.466Z,67.12
2018-11-06T00:43:27.212Z,86.47
2018-11-06T00:45:56.001Z,67.12
2018-11-06T00:48:24.706Z,84.28
2018-11-06T00:50:53.447Z,80.87
2018-11-06T00:53:22.128Z,70.45
2018-11-06T00:55:50.837Z,94.92
2018-11-06T00:58:19.533Z,72.30
2018-11-06T01:00:48.239Z,70.42
2018-11-06T01:03:23.530Z,66.62
2018-11-06T01:05:52.239Z,97.00
2018-11-06T01:08:21.047Z,71.30
2018-11-06T01:10:49.746Z,91.72
2018-11-06T01:13:18.481Z,91.72
2018-11-06T01:15:47.191Z,79.67
2018-11-06T01:18:15.977Z,67.47
2018-11-06T01:20:44.658Z,84.87
2018-11-06T01:23:13.378Z,61.28
2018-11-06T01:25:42.137Z,61.92
2018-11-06T01:28:10.876Z,79.25
2018-11-06T01:30:39.627Z,77.50
2018-11-06T01:33:08.436Z,70.97
2018-11-06T01:35:37.149Z,80.97
2018-11-06T01:38:06.543Z,90.00
2018-11-06T01:40:35.256Z,78.52
2018-11-06T01:43:04.119Z,68.35
2018-11-06T01:45:32.830Z,81.35
2018-11-06T01:48:01.502Z,76.50
2018-11-06T01:50:30.221Z,65.97
2018-11-06T01:52:58.903Z,79.50
2018-11-06T01:55:27.676Z,62.38
2018-11-06T01:57:56.428Z,85.70
2018-11-06T02:00:25.199Z,50.65
2018-11-06T02:02:53.925Z,58.10
2018-11-06T02:05:22.670Z,75.87
2018-11-06T02:07:51.339Z,50.63
2018-11-06T02:10:20.046Z,73.83
2018-11-06T02:12:48.933Z,59.58
2018-11-06T02:15:23.550Z,61.95
2018-11-06T02:17:57.092Z,55.38
2018-11-06T02:20:32.208Z,56.18
2018-11-06T02:23:05.766Z,61.42
2018-11-06T02:25:38.841Z,56.60
2018-11-06T02:28:15.516Z,69.35
2018-11-06T02:30:48.465Z,48.08
2018-11-06T02:33:25.099Z,58.30
2018-11-06T02:35:58.169Z,64.62
2018-11-06T02:38:35.038Z,53.70
2018-11-06T02:41:08.523Z,61.73
2018-11-06T02:43:41.443Z,62.38
2018-11-06T02:46:14.249Z,49.20
2018-11-06T02:48:49.448Z,60.80
2018-11-06T02:51:28.380Z,71.95
2018-11-06T02:54:02.031Z,55.35
2018-11-06T02:56:35.233Z,53.60
2018-11-06T02:59:08.194Z,60.23
2018-11-06T03:01:44.931Z,49.10
2018-11-06T03:04:18.904Z,44.93
2018-11-06T03:06:52.390Z,50.08
2018-11-06T03:09:25.491Z,49.05
2018-11-06T03:11:59.996Z,49.25
2018-11-06T03:14:33.991Z,52.17
2018-11-06T03:17:08.427Z,49.38
2018-11-06T03:19:42.994Z,46.50
2018-11-06T03:22:23.312Z,45.73
2018-11-06T03:24:56.477Z,39.00
2018-11-06T03:27:38.176Z,50.33
2018-11-06T03:30:18.061Z,42.40
2018-11-06T03:32:51.012Z,51.25
2018-11-06T03:35:24.199Z,44.93
2018-11-06T03:37:57.396Z,49.00
2018-11-06T03:40:31.118Z,52.83
2018-11-06T03:43:04.331Z,44.50
2018-11-06T03:45:39.013Z,38.13
2018-11-06T03:48:12.294Z,48.70
2018-11-06T03:50:45.315Z,48.17
2018-11-06T03:53:18.541Z,70.08
2018-11-06T03:55:53.359Z,60.10
2018-11-06T03:58:26.659Z,45.40
2018-11-06T04:01:02.587Z,67.32
2018-11-06T04:03:35.945Z,46.42
2018-11-06T04:06:10.010Z,41.58
2018-11-06T04:08:43.025Z,84.40
2018-11-06T04:11:17.224Z,45.48
2018-11-06T04:13:50.342Z,42.00
2018-11-06T04:16:25.021Z,58.70
2018-11-06T04:21:42.302Z,69.12
2018-11-06T04:24:17.320Z,65.72
2018-11-06T04:26:55.016Z,83.10
2018-11-06T04:29:28.524Z,50.52
2018-11-06T04:32:02.176Z,42.03
2018-11-06T04:34:35.187Z,51.25
2018-11-06T04:37:08.284Z,46.33
2018-11-06T04:39:43.902Z,42.03
2018-11-06T04:42:16.734Z,56.75
2018-11-06T04:44:49.718Z,51.77
2018-11-06T04:47:23.622Z,37.10
2018-11-06T04:49:57.416Z,42.95
2018-11-06T04:52:30.491Z,40.90
2018-11-06T04:55:03.523Z,51.10
2018-11-06T04:57:36.337Z,41.90
2018-11-06T05:00:11.385Z,47.48
2018-11-06T05:02:44.661Z,57.13
2018-11-06T05:05:17.470Z,33.95
2018-11-06T05:07:50.558Z,79.25
2018-11-06T05:10:23.326Z,55.33
2018-11-06T05:12:55.070Z,47.80
2018-11-06T05:15:27.854Z,34.30
2018-11-06T05:17:59.791Z,34.53
2018-11-06T05:20:33.476Z,72.85
2018-11-06T05:23:05.706Z,40.17
2018-11-06T05:25:38.638Z,58.85
2018-11-06T05:28:11.722Z,49.67
2018-11-06T05:30:44.420Z,90.20
2018-11-06T05:33:16.999Z,45.35
2018-11-06T05:35:52.130Z,47.25
2018-11-06T05:38:26.119Z,40.40
2018-11-06T05:41:02.208Z,77.20
2018-11-06T05:43:35.377Z,40.10
2018-11-06T05:46:08.408Z,42.80
2018-11-06T05:48:42.041Z,38.67
2018-11-06T05:51:14.866Z,25.85
2018-11-06T05:53:47.760Z,31.82
2018-11-06T05:56:20.850Z,32.10
2018-11-06T05:58:53.399Z,29.32
2018-11-06T06:01:27.842Z,38.30
2018-11-06T06:04:00.478Z,40.30
2018-11-06T06:06:34.694Z,29.70
2018-11-06T06:09:09.308Z,30.55
2018-11-06T06:11:43.652Z,51.08
2018-11-06T06:14:16.402Z,33.80
2018-11-06T06:16:52.199Z,28.83
2018-11-06T06:19:24.874Z,27.73
2018-11-06T06:21:58.112Z,35.73
2018-11-06T06:24:30.737Z,29.85
2018-11-06T06:27:03.751Z,23.55
2018-11-06T06:29:36.514Z,20.27
2018-11-06T06:32:09.550Z,16.10
2018-11-06T06:34:42.908Z,18.85
2018-11-06T06:37:15.841Z,19.10
2018-11-06T06:39:48.861Z,20.60
2018-11-06T06:42:22.759Z,17.10
2018-11-06T06:44:55.766Z,21.15
2018-11-06T06:47:29.358Z,24.55
2018-11-06T06:50:01.895Z,20.23
2018-11-06T06:52:34.842Z,23.73
2018-11-06T06:55:07.593Z,25.88
2018-11-06T06:57:40.921Z,30.82
2018-11-06T07:00:16.211Z,23.02
2018-11-06T07:02:49.095Z,25.43
2018-11-06T07:05:23.409Z,35.28
2018-11-06T07:07:52.347Z,40.52
2018-11-06T07:10:22.788Z,35.50
2018-11-06T07:12:52.130Z,44.63
2018-11-06T07:15:22.226Z,34.53
2018-11-06T07:17:51.781Z,36.60
2018-11-06T07:20:21.843Z,35.00
2018-11-06T07:22:50.697Z,30.02
2018-11-06T07:25:19.590Z,39.38
2018-11-06T07:27:48.860Z,40.88
2018-11-06T07:30:19.070Z,43.02
2018-11-06T07:32:48.048Z,38.83
2018-11-06T07:35:17.777Z,40.63
2018-11-06T07:37:46.848Z,44.00
2018-11-06T07:40:17.466Z,51.63
2018-11-06T07:42:46.826Z,67.30
2018-11-06T07:45:17.305Z,75.50
2018-11-06T07:47:46.197Z,67.15
2018-11-06T07:50:15.384Z,87.75
2018-11-06T07:52:44.491Z,91.37
2018-11-06T07:55:14.857Z,80.30
2018-11-06T07:57:43.701Z,70.03
2018-11-06T08:00:16.967Z,90.57
2018-11-06T08:02:46.877Z,81.63
2018-11-06T08:05:16.192Z,69.22
2018-11-06T08:07:45.661Z,66.30
2018-11-06T08:10:14.653Z,59.40
2018-11-06T08:12:44.749Z,62.70
2018-11-06T08:15:14.472Z,52.60
2018-11-06T08:17:44.243Z,95.92
2018-11-06T08:20:13.115Z,56.45
2018-11-06T08:22:41.956Z,56.83
2018-11-06T08:25:12.220Z,53.25
2018-11-06T08:27:41.839Z,55.92
2018-11-06T08:30:11.379Z,61.70
2018-11-06T08:32:41.326Z,52.80
2018-11-06T08:35:12.124Z,42.73
2018-11-06T08:37:41.144Z,43.25
2018-11-06T08:40:11.284Z,47.27
2018-11-06T08:42:40.124Z,58.30
2018-11-06T08:45:10.659Z,46.98
2018-11-06T08:47:40.808Z,47.33
2018-11-06T08:50:12.177Z,46.23
2018-11-06T08:52:41.410Z,48.25
2018-11-06T08:55:11.449Z,47.90
2018-11-06T08:57:40.797Z,41.10
2018-11-06T09:00:11.783Z,41.77
2018-11-06T09:02:40.738Z,61.23
2018-11-06T09:05:11.568Z,40.55
2018-11-06T09:07:40.693Z,35.52
2018-11-06T09:10:12.368Z,35.78
2018-11-06T09:12:43.107Z,56.28
2018-11-06T09:15:13.685Z,44.45
2018-11-06T09:17:43.657Z,36.35
2018-11-06T09:20:13.921Z,30.82
2018-11-06T09:22:44.906Z,37.08
2018-11-06T09:25:16.312Z,41.60
2018-11-06T09:27:46.849Z,35.23
2018-11-06T09:30:18.865Z,36.35
2018-11-06T09:32:48.413Z,39.08
2018-11-06T09:35:18.346Z,33.02
2018-11-06T09:37:49.374Z,29.20
2018-11-06T09:40:21.528Z,36.03
2018-11-06T09:42:51.411Z,27.13
2018-11-06T09:45:22.478Z,44.48
2018-11-06T09:47:52.429Z,29.00
2018-11-06T09:50:22.459Z,37.67
2018-11-06T09:52:51.337Z,32.28
2018-11-06T09:55:20.102Z,28.32
2018-11-06T09:57:49.001Z,30.90
2018-11-06T10:00:19.252Z,26.97
2018-11-06T10:02:47.977Z,27.55
2018-11-06T10:05:17.263Z,34.70
2018-11-06T10:07:46.157Z,31.20
2018-11-06T10:10:16.478Z,31.73
2018-11-06T10:12:45.789Z,28.98
2018-11-06T10:15:16.093Z,28.70
2018-11-06T10:17:46.689Z,32.25
2018-11-06T10:20:16.625Z,44.03
2018-11-06T10:22:45.377Z,31.17
2018-11-06T10:25:14.182Z,27.62
2018-11-06T10:27:43.033Z,34.53
2018-11-06T10:30:16.117Z,34.65
2018-11-06T10:32:44.968Z,31.42
2018-11-06T10:35:15.960Z,33.78
2018-11-06T10:37:47.583Z,31.80
2018-11-06T10:40:32.984Z,31.85
2018-11-06T10:43:01.990Z,33.40
2018-11-06T10:45:30.864Z,32.50
2018-11-06T10:47:59.642Z,30.95
2018-11-06T10:50:28.381Z,31.55
2018-11-06T10:52:57.186Z,30.90
2018-11-06T10:55:26.874Z,28.07
2018-11-06T10:57:55.743Z,35.48
2018-11-06T11:00:29.745Z,52.33
2018-11-06T11:03:04.392Z,41.28
2018-11-06T11:05:33.137Z,34.33
2018-11-06T11:08:01.904Z,37.35
2018-11-06T11:10:30.731Z,37.95
2018-11-06T11:13:00.136Z,53.52
2018-11-06T11:15:28.921Z,32.23
2018-11-06T11:17:57.935Z,36.50
2018-11-06T11:20:27.096Z,35.73
2018-11-06T11:22:55.837Z,39.23
2018-11-06T11:25:24.731Z,31.40
2018-11-06T11:27:53.473Z,28.65
2018-11-06T11:30:22.201Z,28.75
2018-11-06T11:32:52.513Z,31.52
2018-11-06T11:35:21.255Z,28.25
2018-11-06T11:37:50.204Z,32.90
2018-11-06T11:40:18.989Z,29.87
2018-11-06T11:43:04.973Z,40.92
2018-11-06T11:45:34.573Z,27.00
2018-11-06T11:48:03.780Z,35.95
2018-11-06T11:50:48.313Z,32.95
2018-11-06T11:53:17.610Z,32.38
2018-11-06T11:55:46.461Z,47.53
2018-11-06T11:58:16.232Z,33.92
2018-11-06T12:00:46.615Z,33.50
2018-11-06T12:03:15.671Z,33.48
2018-11-06T12:05:45.326Z,37.03
2018-11-06T12:08:26.088Z,47.73
2018-11-06T12:10:55.677Z,50.75
2018-11-06T12:13:24.421Z,33.05
2018-11-06T12:15:53.259Z,40.17
2018-11-06T12:18:22.360Z,41.60
2018-11-06T12:20:51.081Z,37.90
2018-11-06T12:23:21.019Z,39.80
2018-11-06T12:25:52.837Z,40.33
2018-11-06T12:28:21.456Z,40.43
2018-11-06T12:30:50.225Z,52.25
2018-11-06T12:33:20.385Z,42.48
2018-11-06T12:35:49.204Z,54.27
2018-11-06T12:38:18.125Z,81.42
2018-11-06T12:40:58.631Z,66.85
2018-11-06T12:43:30.681Z,43.87
2018-11-06T12:46:00.306Z,43.63
2018-11-06T12:48:29.428Z,59.58
2018-11-06T12:50:58.199Z,41.23
2018-11-06T12:53:27.056Z,62.40
2018-11-06T12:55:56.362Z,48.42
2018-11-06T12:58:26.371Z,61.95
2018-11-06T13:00:55.527Z,58.75
2018-11-06T13:03:24.341Z,56.10
2018-11-06T13:05:53.198Z,51.68
2018-11-06T13:08:21.990Z,50.55
2018-11-06T13:10:50.811Z,60.65
2018-11-06T13:13:19.570Z,52.35
2018-11-06T13:15:48.543Z,42.38
2018-11-06T13:18:17.334Z,41.02
2018-11-06T13:20:46.094Z,48.30
2018-11-06T13:23:15.112Z,38.83
2018-11-06T13:25:44.334Z,41.45
2018-11-06T13:28:13.169Z,51.40
2018-11-06T13:30:42.103Z,44.55
2018-11-06T13:33:10.826Z,43.35
2018-11-06T13:35:39.621Z,39.23
2018-11-06T13:38:08.986Z,35.80
2018-11-06T13:40:37.845Z,44.88
2018-11-06T13:43:06.869Z,50.45
2018-11-06T13:45:35.866Z,52.15
2018-11-06T13:48:04.494Z,52.05
2018-11-06T13:50:33.529Z,37.83
2018-11-06T13:53:02.262Z,42.83
2018-11-06T13:55:31.047Z,37.67
2018-11-06T13:57:59.813Z,38.75
2018-11-06T14:00:28.729Z,33.50
2018-11-06T14:02:57.454Z,42.50
2018-11-06T14:05:27.195Z,40.40
2018-11-06T14:07:56.049Z,32.63
2018-11-06T14:10:24.940Z,36.75
2018-11-06T14:12:53.910Z,42.30
2018-11-06T14:15:22.835Z,30.48
2018-11-06T14:17:51.825Z,48.08
2018-11-06T14:20:20.759Z,32.67
2018-11-06T14:22:49.539Z,41.42
2018-11-06T14:25:18.619Z,36.42
2018-11-06T14:27:47.454Z,35.35
2018-11-06T14:30:18.269Z,44.13
2018-11-06T14:32:47.714Z,38.15
2018-11-06T14:35:17.948Z,37.75
2018-11-06T14:37:47.329Z,37.28
2018-11-06T14:40:16.644Z,60.78
2018-11-06T14:42:46.075Z,36.65
2018-11-06T14:45:16.635Z,43.73
2018-11-06T14:47:48.352Z,50.10
2018-11-06T14:50:17.393Z,36.98
2018-11-06T14:52:46.260Z,43.08
2018-11-06T14:55:16.034Z,40.08
2018-11-06T14:57:44.940Z,32.38
2018-11-06T15:00:17.478Z,45.80
2018-11-06T15:02:47.987Z,38.40
2018-11-06T15:05:17.717Z,39.13
2018-11-06T15:07:46.727Z,34.92
2018-11-06T15:10:15.582Z,37.63
2018-11-06T15:12:44.792Z,34.80
2018-11-06T15:15:14.348Z,31.90
2018-11-06T15:17:44.260Z,46.80
2018-11-06T15:20:14.916Z,35.33
2018-11-06T15:22:44.350Z,29.70
2018-11-06T15:25:13.815Z,31.68
2018-11-06T15:27:42.630Z,35.88
2018-11-06T15:30:12.968Z,38.85
2018-11-06T15:32:42.193Z,52.40
2018-11-06T15:35:14.200Z,32.28
2018-11-06T15:37:43.026Z,33.02
2018-11-06T15:40:14.725Z,28.98
2018-11-06T15:42:43.714Z,29.70
2018-11-06T15:45:14.410Z,35.83
2018-11-06T15:47:44.307Z,26.93
2018-11-06T15:50:14.289Z,34.70
2018-11-06T15:52:43.811Z,28.23
2018-11-06T15:55:12.587Z,34.98
2018-11-06T15:57:41.296Z,31.68
2018-11-06T16:00:22.279Z,29.65
2018-11-06T16:02:53.590Z,34.63
2018-11-06T16:05:22.373Z,39.00
2018-11-06T16:07:51.405Z,45.12
2018-11-06T16:10:22.569Z,43.90
2018-11-06T16:12:51.351Z,54.42
2018-11-06T16:15:20.270Z,46.30
2018-11-06T16:17:49.030Z,42.17
2018-11-06T16:20:18.961Z,55.70
2018-11-06T16:22:47.787Z,50.40
2018-11-06T16:25:20.942Z,75.30
2018-11-06T16:27:50.044Z,43.70
2018-11-06T16:30:20.339Z,42.88
2018-11-06T16:32:49.197Z,31.07
2018-11-06T16:35:20.099Z,34.65
2018-11-06T16:37:49.372Z,57.48
2018-11-06T16:40:18.510Z,53.33
2018-11-06T16:43:07.392Z,85.55
2018-11-06T16:45:36.852Z,81.17
2018-11-06T16:48:05.540Z,90.22
2018-11-06T16:50:34.482Z,87.95
2018-11-06T16:53:03.234Z,90.50
2018-11-06T16:55:32.048Z,84.77
2018-11-06T16:58:01.079Z,82.72
2018-11-06T17:00:30.090Z,78.00
2018-11-06T17:02:59.024Z,76.07
2018-11-06T17:05:27.853Z,63.08
2018-11-06T17:07:56.681Z,68.10
2018-11-06T17:10:25.612Z,74.75
2018-11-06T17:12:54.572Z,70.40
2018-11-06T17:15:24.158Z,62.93
2018-11-06T17:17:54.505Z,58.85
2018-11-06T17:20:23.691Z,65.87
2018-11-06T17:22:52.483Z,61.15
2018-11-06T17:25:22.361Z,64.30
2018-11-06T17:27:51.098Z,69.37
2018-11-06T17:30:20.391Z,56.50
2018-11-06T17:32:49.156Z,67.45
2018-11-06T17:35:19.050Z,65.67
2018-11-06T17:37:47.806Z,60.23
2018-11-06T17:40:17.867Z,59.90
2018-11-06T17:42:46.631Z,62.00
2018-11-06T17:45:17.961Z,74.58
2018-11-06T17:47:46.727Z,62.93
2018-11-06T17:50:16.441Z,58.52
2018-11-06T17:52:45.301Z,60.88
2018-11-06T17:55:15.541Z,65.10
2018-11-06T17:57:44.236Z,58.65
2018-11-06T18:00:15.648Z,60.50
2018-11-06T18:02:44.840Z,65.00
2018-11-06T18:05:14.636Z,56.42
2018-11-06T18:07:43.769Z,52.23
2018-11-06T18:10:14.307Z,56.98
2018-11-06T18:12:43.311Z,55.03
2018-11-06T18:15:12.103Z,48.75
2018-11-06T18:17:41.255Z,44.70
2018-11-06T18:20:11.333Z,50.45
2018-11-06T18:22:42.040Z,41.90
2018-11-06T18:25:11.903Z,45.17
2018-11-06T18:27:41.012Z,49.45
2018-11-06T18:30:16.937Z,51.30
2018-11-06T18:32:45.670Z,51.02
2018-11-06T18:35:15.596Z,46.30
2018-11-06T18:37:44.371Z,46.98
2018-11-06T18:40:16.040Z,46.45
2018-11-06T18:42:45.758Z,46.68
2018-11-06T18:45:15.177Z,51.58
2018-11-06T18:47:44.007Z,50.67
2018-11-06T18:50:13.837Z,48.98
2018-11-06T18:52:44.021Z,50.78
2018-11-06T18:55:12.986Z,50.03
2018-11-06T18:57:42.187Z,48.28
2018-11-06T19:00:14.249Z,51.98
2018-11-06T19:02:44.278Z,48.65
2018-11-06T19:05:13.170Z,46.70
2018-11-06T19:07:42.027Z,41.42
2018-11-06T19:10:12.497Z,41.88
2018-11-06T19:12:41.502Z,39.38
2018-11-06T19:15:15.811Z,47.38
2018-11-06T19:17:45.518Z,39.53
2018-11-06T19:20:14.982Z,37.50
2018-11-06T19:22:43.880Z,46.68
2018-11-06T19:25:13.513Z,44.03
2018-11-06T19:27:42.390Z,41.05
2018-11-06T19:30:14.908Z,42.20
2018-11-06T19:32:43.710Z,41.88
2018-11-06T19:35:12.525Z,40.98
2018-11-06T19:37:42.080Z,40.83
2018-11-06T19:40:13.189Z,52.95
2018-11-06T19:42:42.960Z,40.33
2018-11-06T19:45:12.550Z,38.20
2018-11-06T19:47:41.358Z,42.55
2018-11-06T19:50:12.583Z,46.28
2018-11-06T19:52:41.541Z,40.90
2018-11-06T19:55:11.765Z,46.18
2018-11-06T19:57:40.649Z,48.60
2018-11-06T20:00:15.055Z,37.75
2018-11-06T20:02:45.231Z,42.20
2018-11-06T20:05:14.157Z,51.60
2018-11-06T20:07:43.939Z,55.10
2018-11-06T20:10:16.948Z,56.80
2018-11-06T20:12:46.753Z,62.05
2018-11-06T20:15:16.128Z,56.02
2018-11-06T20:17:45.411Z,51.25
2018-11-06T20:20:15.900Z,49.38
2018-11-06T20:22:44.913Z,55.63
2018-11-06T20:25:13.816Z,53.55
2018-11-06T20:27:42.780Z,44.40
2018-11-06T20:30:14.031Z,44.85
2018-11-06T20:32:42.899Z,55.23
2018-11-06T20:35:12.410Z,43.45
2018-11-06T20:37:41.183Z,45.20
2018-11-06T20:40:12.439Z,51.05
2018-11-06T20:42:41.862Z,54.75
2018-11-06T20:45:12.148Z,51.95
2018-11-06T20:47:41.438Z,50.95
2018-11-06T20:50:12.301Z,45.48
2018-11-06T20:52:41.171Z,59.73
2018-11-06T20:55:11.139Z,48.02
2018-11-06T20:57:40.080Z,47.75
2018-11-06T21:00:18.442Z,44.93
2018-11-06T21:02:47.793Z,49.20
2018-11-06T21:05:24.337Z,50.67
2018-11-06T21:07:58.918Z,44.58
2018-11-06T21:10:29.073Z,53.68
2018-11-06T21:12:57.934Z,50.65
2018-11-06T21:15:26.722Z,45.25
2018-11-06T21:17:55.707Z,47.93
2018-11-06T21:20:24.656Z,40.73
2018-11-06T21:22:53.465Z,44.98
2018-11-06T21:25:22.565Z,45.63
2018-11-06T21:27:51.289Z,49.18
2018-11-06T21:30:20.895Z,44.35
2018-11-06T21:32:50.997Z,50.03
2018-11-06T21:35:19.786Z,42.85
2018-11-06T21:37:48.589Z,50.92
2018-11-06T21:40:18.804Z,41.20
2018-11-06T21:42:48.086Z,39.70
2018-11-06T21:45:17.435Z,48.52
2018-11-06T21:47:46.941Z,44.67
2018-11-06T21:50:16.689Z,44.67
2018-11-06T21:52:45.550Z,40.40
2018-11-06T21:55:16.154Z,46.42
2018-11-06T21:57:44.956Z,38.40
2018-11-06T22:00:19.404Z,45.38
2018-11-06T22:02:48.228Z,37.60
2018-11-06T22:05:18.485Z,39.95
2018-11-06T22:07:47.439Z,37.33
2018-11-06T22:10:17.548Z,33.10
2018-11-06T22:12:46.651Z,49.67
2018-11-06T22:15:16.952Z,43.00
2018-11-06T22:17:45.731Z,39.60
2018-11-06T22:20:16.701Z,37.65
2018-11-06T22:22:46.132Z,39.25
2018-11-06T22:25:15.024Z,41.37
2018-11-06T22:27:44.023Z,33.85
2018-11-06T22:30:14.230Z,38.98
2018-11-06T22:32:43.870Z,38.20
2018-11-06T22:35:14.045Z,35.90
2018-11-06T22:37:43.099Z,30.60
2018-11-06T22:40:13.291Z,34.05
2018-11-06T22:42:42.144Z,35.13
2018-11-06T22:45:13.678Z,34.53
2018-11-06T22:47:42.901Z,28.17
2018-11-06T22:50:13.303Z,27.93
2018-11-06T23:17:14.685Z,33.73
2018-11-06T23:19:43.697Z,30.25
2018-11-06T23:22:12.432Z,32.55
2018-11-06T23:24:41.200Z,38.53
2018-11-06T23:27:09.910Z,31.90
2018-11-06T23:29:38.744Z,30.52
2018-11-06T23:32:07.553Z,32.78
2018-11-06T23:34:36.291Z,29.02
2018-11-06T23:37:05.233Z,32.00
2018-11-06T23:39:34.645Z,33.80
2018-11-06T23:42:03.521Z,35.43
2018-11-06T23:44:32.277Z,32.65
2018-11-06T23:47:01.040Z,36.95
2018-11-06T23:49:29.867Z,32.60
2018-11-06T23:51:58.672Z,37.90
2018-11-06T23:54:27.557Z,31.80
2018-11-06T23:56:56.414Z,25.55
2018-11-06T23:59:25.309Z,30.50
